sensor_id;sensor_type;location;lat;lon;timestamp;pressure;altitude;pressure_sealevel;temperature;humidity
55550;BME280;41397;49.972;18.944;2023-02-01T00:00:36;101401.33;;;4.15;87.13
55550;BME280;41397;49.972;18.944;2023-02-01T00:03:43;101396.36;;;4.25;87.09
55550;BME280;41397;49.972;18.944;2023-02-01T00:06:44;101385.62;;;4.23;86.88
55550;BME280;41397;49.972;18.944;2023-02-01T00:09:46;101367.54;;;4.24;86.88
55550;BME280;41397;49.972;18.944;2023-02-01T00:12:47;101366.58;;;4.25;86.77
55550;BME280;41397;49.972;18.944;2023-02-01T00:15:48;101362.13;;;4.24;86.66
55550;BME280;41397;49.972;18.944;2023-02-01T00:18:51;101375.08;;;4.17;86.39
55550;BME280;41397;49.972;18.944;2023-02-01T00:21:53;101378.27;;;4.07;86.96
55550;BME280;41397;49.972;18.944;2023-02-01T00:24:54;101377.84;;;4.16;86.90
55550;BME280;41397;49.972;18.944;2023-02-01T00:27:56;101367.16;;;4.13;86.99
55550;BME280;41397;49.972;18.944;2023-02-01T00:31:01;101353.83;;;4.08;86.45
55550;BME280;41397;49.972;18.944;2023-02-01T00:34:03;101345.33;;;3.97;86.92
55550;BME280;41397;49.972;18.944;2023-02-01T00:37:05;101352.62;;;3.95;87.15
55550;BME280;41397;49.972;18.944;2023-02-01T00:40:07;101350.59;;;4.00;87.20
55550;BME280;41397;49.972;18.944;2023-02-01T00:43:09;101342.47;;;4.00;87.01
55550;BME280;41397;49.972;18.944;2023-02-01T00:46:11;101350.59;;;4.00;86.69
55550;BME280;41397;49.972;18.944;2023-02-01T00:49:13;101349.71;;;3.99;86.97
55550;BME280;41397;49.972;18.944;2023-02-01T00:52:14;101348.76;;;4.00;86.88
55550;BME280;41397;49.972;18.944;2023-02-01T00:55:16;101355.95;;;4.02;87.04
55550;BME280;41397;49.972;18.944;2023-02-01T00:58:17;101353.39;;;3.98;86.75
55550;BME280;41397;49.972;18.944;2023-02-01T01:01:24;101357.55;;;4.06;86.89
55550;BME280;41397;49.972;18.944;2023-02-01T01:04:27;101353.09;;;4.05;87.06
55550;BME280;41397;49.972;18.944;2023-02-01T01:07:34;101360.48;;;4.01;87.26
55550;BME280;41397;49.972;18.944;2023-02-01T01:10:35;101359.09;;;4.11;87.05
55550;BME280;41397;49.972;18.944;2023-02-01T01:13:36;101375.28;;;4.13;87.48
55550;BME280;41397;49.972;18.944;2023-02-01T01:16:38;101389.10;;;4.07;87.43
55550;BME280;41397;49.972;18.944;2023-02-01T01:19:42;101388.61;;;4.17;87.27
55550;BME280;41397;49.972;18.944;2023-02-01T01:22:43;101383.98;;;4.19;87.06
55550;BME280;41397;49.972;18.944;2023-02-01T01:25:44;101365.70;;;4.25;87.24
55550;BME280;41397;49.972;18.944;2023-02-01T01:28:46;101381.23;;;4.21;87.12
55550;BME280;41397;49.972;18.944;2023-02-01T01:31:50;101367.01;;;4.16;87.22
55550;BME280;41397;49.972;18.944;2023-02-01T01:34:51;101361.65;;;4.14;87.43
55550;BME280;41397;49.972;18.944;2023-02-01T01:37:52;101373.30;;;4.16;87.27
55550;BME280;41397;49.972;18.944;2023-02-01T01:40:54;101375.28;;;4.13;87.61
55550;BME280;41397;49.972;18.944;2023-02-01T01:47:07;101472.92;;;4.08;87.45
55550;BME280;41397;49.972;18.944;2023-02-01T01:50:13;101483.93;;;4.04;87.92
55550;BME280;41397;49.972;18.944;2023-02-01T01:53:22;101479.03;;;3.71;88.07
55550;BME280;41397;49.972;18.944;2023-02-01T01:56:25;101488.80;;;3.53;88.66
55550;BME280;41397;49.972;18.944;2023-02-01T01:59:29;101483.58;;;3.48;88.98
55550;BME280;41397;49.972;18.944;2023-02-01T02:02:32;101476.17;;;3.31;88.89
55550;BME280;41397;49.972;18.944;2023-02-01T02:05:33;101472.20;;;3.40;89.28
55550;BME280;41397;49.972;18.944;2023-02-01T02:08:35;101463.39;;;3.35;89.16
55550;BME280;41397;49.972;18.944;2023-02-01T02:11:36;101455.54;;;3.29;89.18
55550;BME280;41397;49.972;18.944;2023-02-01T02:14:38;101454.66;;;3.28;89.34
55550;BME280;41397;49.972;18.944;2023-02-01T02:30:46;101452.83;;;3.07;90.70
55550;BME280;41397;49.972;18.944;2023-02-01T02:33:59;101457.24;;;2.86;90.91
55550;BME280;41397;49.972;18.944;2023-02-01T02:40:25;101451.68;;;2.67;92.30
55550;BME280;41397;49.972;18.944;2023-02-01T02:43:44;101456.32;;;2.63;92.87
55550;BME280;41397;49.972;18.944;2023-02-01T02:47:03;101426.33;;;2.71;93.11
55550;BME280;41397;49.972;18.944;2023-02-01T02:53:52;101453.84;;;2.81;91.93
55550;BME280;41397;49.972;18.944;2023-02-01T02:57:08;101456.46;;;2.84;92.14
55550;BME280;41397;49.972;18.944;2023-02-01T03:00:28;101442.12;;;2.82;92.26
55550;BME280;41397;49.972;18.944;2023-02-01T03:03:42;101445.27;;;2.93;92.13
55550;BME280;41397;49.972;18.944;2023-02-01T03:06:56;101434.16;;;3.01;92.28
55550;BME280;41397;49.972;18.944;2023-02-01T03:10:05;101439.87;;;2.93;92.28
55550;BME280;41397;49.972;18.944;2023-02-01T03:16:33;101419.27;;;3.13;92.16
55550;BME280;41397;49.972;18.944;2023-02-01T03:19:39;101426.24;;;2.96;91.93
55550;BME280;41397;49.972;18.944;2023-02-01T03:22:52;101436.61;;;3.07;92.26
55550;BME280;41397;49.972;18.944;2023-02-01T03:25:56;101428.25;;;3.13;91.82
55550;BME280;41397;49.972;18.944;2023-02-01T03:29:09;101433.43;;;3.19;91.78
55550;BME280;41397;49.972;18.944;2023-02-01T03:32:12;101436.93;;;3.21;91.57
55550;BME280;41397;49.972;18.944;2023-02-01T03:35:14;101428.69;;;3.24;91.21
55550;BME280;41397;49.972;18.944;2023-02-01T03:38:22;101433.91;;;3.29;91.40
55550;BME280;41397;49.972;18.944;2023-02-01T03:47:55;101438.45;;;3.28;90.68
55550;BME280;41397;49.972;18.944;2023-02-01T03:51:01;101447.43;;;3.29;90.80
55550;BME280;41397;49.972;18.944;2023-02-01T03:54:08;101447.25;;;3.33;90.82
55550;BME280;41397;49.972;18.944;2023-02-01T03:57:16;101458.76;;;3.39;90.47
55550;BME280;41397;49.972;18.944;2023-02-01T04:00:24;101449.65;;;3.41;90.41
55550;BME280;41397;49.972;18.944;2023-02-01T04:03:27;101433.65;;;3.35;90.49
55550;BME280;41397;49.972;18.944;2023-02-01T04:06:28;101444.34;;;3.38;90.28
55550;BME280;41397;49.972;18.944;2023-02-01T04:09:30;101441.53;;;3.41;90.35
55550;BME280;41397;49.972;18.944;2023-02-01T04:12:31;101446.98;;;3.40;90.31
55550;BME280;41397;49.972;18.944;2023-02-01T04:15:33;101453.00;;;3.46;90.24
55550;BME280;41397;49.972;18.944;2023-02-01T04:18:35;101459.50;;;3.42;90.22
55550;BME280;41397;49.972;18.944;2023-02-01T04:21:37;101464.91;;;3.42;90.33
55550;BME280;41397;49.972;18.944;2023-02-01T04:24:39;101467.93;;;3.34;90.49
55550;BME280;41397;49.972;18.944;2023-02-01T04:27:40;101472.34;;;3.37;90.43
55550;BME280;41397;49.972;18.944;2023-02-01T04:30:43;101474.33;;;3.32;90.27
55550;BME280;41397;49.972;18.944;2023-02-01T04:33:46;101468.93;;;3.32;89.80
55550;BME280;41397;49.972;18.944;2023-02-01T04:36:47;101478.81;;;3.33;90.04
55550;BME280;41397;49.972;18.944;2023-02-01T04:39:49;101470.36;;;3.41;89.81
55550;BME280;41397;49.972;18.944;2023-02-01T04:42:51;101472.34;;;3.37;89.57
55550;BME280;41397;49.972;18.944;2023-02-01T04:45:52;101466.34;;;3.51;89.49
55550;BME280;41397;49.972;18.944;2023-02-01T04:48:54;101468.13;;;3.52;89.02
55550;BME280;41397;49.972;18.944;2023-02-01T04:51:56;101464.38;;;3.54;88.67
55550;BME280;41397;49.972;18.944;2023-02-01T04:54:59;101472.49;;;3.54;88.31
55550;BME280;41397;49.972;18.944;2023-02-01T04:58:03;101462.33;;;3.61;88.11
55550;BME280;41397;49.972;18.944;2023-02-01T05:01:05;101469.75;;;3.56;87.83
55550;BME280;41397;49.972;18.944;2023-02-01T05:04:07;101471.49;;;3.57;87.83
55550;BME280;41397;49.972;18.944;2023-02-01T05:07:08;101464.15;;;3.61;87.65
55550;BME280;41397;49.972;18.944;2023-02-01T05:10:10;101467.41;;;3.69;87.67
55550;BME280;41397;49.972;18.944;2023-02-01T05:13:11;101464.63;;;3.70;87.24
55550;BME280;41397;49.972;18.944;2023-02-01T05:16:26;101460.23;;;3.68;86.83
55550;BME280;41397;49.972;18.944;2023-02-01T05:19:27;101478.98;;;3.72;86.48
55550;BME280;41397;49.972;18.944;2023-02-01T05:22:33;101459.03;;;3.75;86.37
55550;BME280;41397;49.972;18.944;2023-02-01T05:25:35;101456.38;;;3.73;85.92
55550;BME280;41397;49.972;18.944;2023-02-01T05:28:36;101466.00;;;3.81;85.75
55550;BME280;41397;49.972;18.944;2023-02-01T05:31:38;101456.92;;;3.82;85.88
55550;BME280;41397;49.972;18.944;2023-02-01T05:34:42;101455.23;;;3.79;85.44
55550;BME280;41397;49.972;18.944;2023-02-01T05:37:43;101453.21;;;3.84;85.65
55550;BME280;41397;49.972;18.944;2023-02-01T05:40:44;101456.88;;;3.83;85.46
55550;BME280;41397;49.972;18.944;2023-02-01T05:43:50;101449.58;;;3.85;85.39
55550;BME280;41397;49.972;18.944;2023-02-01T05:46:51;101444.50;;;3.77;85.21
55550;BME280;41397;49.972;18.944;2023-02-01T05:49:53;101437.11;;;3.81;85.25
55550;BME280;41397;49.972;18.944;2023-02-01T05:52:54;101438.80;;;3.84;85.41
55550;BME280;41397;49.972;18.944;2023-02-01T05:55:56;101426.38;;;3.80;85.36
55550;BME280;41397;49.972;18.944;2023-02-01T05:59:00;101434.22;;;3.86;85.51
55550;BME280;41397;49.972;18.944;2023-02-01T06:02:01;101435.96;;;3.87;85.42
55550;BME280;41397;49.972;18.944;2023-02-01T06:05:03;101427.66;;;3.91;85.64
55550;BME280;41397;49.972;18.944;2023-02-01T06:08:07;101432.20;;;3.91;85.52
55550;BME280;41397;49.972;18.944;2023-02-01T06:11:09;101436.73;;;3.90;85.63
55550;BME280;41397;49.972;18.944;2023-02-01T06:14:11;101434.82;;;3.92;85.71
55550;BME280;41397;49.972;18.944;2023-02-01T06:17:12;101436.45;;;3.96;85.38
55550;BME280;41397;49.972;18.944;2023-02-01T06:20:16;101439.22;;;3.95;85.39
55550;BME280;41397;49.972;18.944;2023-02-01T06:23:18;101439.49;;;3.89;85.60
55550;BME280;41397;49.972;18.944;2023-02-01T06:26:19;101435.73;;;3.93;85.32
55550;BME280;41397;49.972;18.944;2023-02-01T06:29:21;101435.59;;;3.96;85.12
55550;BME280;41397;49.972;18.944;2023-02-01T06:32:22;101438.44;;;3.93;85.33
55550;BME280;41397;49.972;18.944;2023-02-01T06:35:24;101440.37;;;3.89;85.43
55550;BME280;41397;49.972;18.944;2023-02-01T06:38:27;101438.34;;;3.94;85.40
55550;BME280;41397;49.972;18.944;2023-02-01T06:41:28;101433.95;;;3.92;85.21
55550;BME280;41397;49.972;18.944;2023-02-01T06:44:30;101434.77;;;3.94;85.29
55550;BME280;41397;49.972;18.944;2023-02-01T06:47:31;101428.34;;;3.96;85.13
55550;BME280;41397;49.972;18.944;2023-02-01T06:50:33;101420.22;;;3.96;84.88
55550;BME280;41397;49.972;18.944;2023-02-01T06:53:36;101420.95;;;4.00;84.95
55550;BME280;41397;49.972;18.944;2023-02-01T06:56:37;101411.01;;;4.00;85.11
55550;BME280;41397;49.972;18.944;2023-02-01T06:59:39;101418.10;;;4.03;84.73
55550;BME280;41397;49.972;18.944;2023-02-01T07:02:40;101413.56;;;4.04;84.69
55550;BME280;41397;49.972;18.944;2023-02-01T07:05:42;101412.45;;;4.09;84.44
55550;BME280;41397;49.972;18.944;2023-02-01T07:08:44;101407.67;;;4.14;84.09
55550;BME280;41397;49.972;18.944;2023-02-01T07:11:46;101404.09;;;4.14;84.15
55550;BME280;41397;49.972;18.944;2023-02-01T07:14:47;101407.28;;;4.23;84.33
55550;BME280;41397;49.972;18.944;2023-02-01T07:17:49;101407.04;;;4.28;84.12
55550;BME280;41397;49.972;18.944;2023-02-01T07:20:50;101409.75;;;4.28;83.63
55550;BME280;41397;49.972;18.944;2023-02-01T07:23:54;101416.07;;;4.29;83.42
55550;BME280;41397;49.972;18.944;2023-02-01T07:26:56;101404.95;;;4.35;85.21
55550;BME280;41397;49.972;18.944;2023-02-01T07:29:57;101412.78;;;4.41;84.18
55550;BME280;41397;49.972;18.944;2023-02-01T07:33:03;101413.75;;;4.40;83.33
55550;BME280;41397;49.972;18.944;2023-02-01T07:36:06;101410.28;;;4.36;82.74
55550;BME280;41397;49.972;18.944;2023-02-01T07:39:08;101413.51;;;4.44;82.24
55550;BME280;41397;49.972;18.944;2023-02-01T07:42:09;101407.16;;;4.45;82.17
55550;BME280;41397;49.972;18.944;2023-02-01T07:45:11;101404.60;;;4.42;82.02
55550;BME280;41397;49.972;18.944;2023-02-01T07:48:14;101416.16;;;4.46;81.84
55550;BME280;41397;49.972;18.944;2023-02-01T07:51:16;101419.74;;;4.47;81.93
55550;BME280;41397;49.972;18.944;2023-02-01T07:54:18;101409.59;;;4.52;83.68
55550;BME280;41397;49.972;18.944;2023-02-01T07:57:19;101409.52;;;4.53;81.79
55550;BME280;41397;49.972;18.944;2023-02-01T08:00:21;101414.80;;;4.56;81.29
55550;BME280;41397;49.972;18.944;2023-02-01T08:03:37;101411.42;;;4.51;81.88
55550;BME280;41397;49.972;18.944;2023-02-01T08:06:39;101412.23;;;4.53;81.54
55550;BME280;41397;49.972;18.944;2023-02-01T08:09:40;101410.98;;;4.60;81.40
55550;BME280;41397;49.972;18.944;2023-02-01T08:12:45;101416.34;;;4.62;81.00
55550;BME280;41397;49.972;18.944;2023-02-01T08:15:52;101424.47;;;4.81;87.51
55550;BME280;41397;49.972;18.944;2023-02-01T08:18:56;101416.49;;;4.78;82.63
55550;BME280;41397;49.972;18.944;2023-02-01T08:21:58;101410.31;;;4.74;81.94
55550;BME280;41397;49.972;18.944;2023-02-01T08:25:00;101414.72;;;4.77;81.07
55550;BME280;41397;49.972;18.944;2023-02-01T08:28:02;101418.23;;;4.79;80.95
55550;BME280;41397;49.972;18.944;2023-02-01T08:31:09;101419.10;;;4.79;80.65
55550;BME280;41397;49.972;18.944;2023-02-01T08:34:11;101409.89;;;4.83;80.51
55550;BME280;41397;49.972;18.944;2023-02-01T08:37:13;101422.78;;;4.78;80.24
55550;BME280;41397;49.972;18.944;2023-02-01T08:40:14;101428.87;;;4.83;80.64
55550;BME280;41397;49.972;18.944;2023-02-01T08:43:16;101417.01;;;4.86;80.49
55550;BME280;41397;49.972;18.944;2023-02-01T08:46:18;101417.27;;;4.80;80.43
55550;BME280;41397;49.972;18.944;2023-02-01T08:49:19;101412.52;;;4.85;80.38
55550;BME280;41397;49.972;18.944;2023-02-01T08:52:20;101414.80;;;4.94;80.45
55550;BME280;41397;49.972;18.944;2023-02-01T08:55:22;101404.84;;;4.95;79.91
55550;BME280;41397;49.972;18.944;2023-02-01T08:58:23;101410.98;;;4.98;80.06
55550;BME280;41397;49.972;18.944;2023-02-01T09:01:25;101414.19;;;5.06;80.03
55550;BME280;41397;49.972;18.944;2023-02-01T09:04:26;101408.55;;;5.11;79.94
55550;BME280;41397;49.972;18.944;2023-02-01T09:07:28;101420.05;;;5.16;79.73
55550;BME280;41397;49.972;18.944;2023-02-01T09:10:29;101415.34;;;5.20;79.59
55550;BME280;41397;49.972;18.944;2023-02-01T09:13:31;101414.48;;;5.19;79.30
55550;BME280;41397;49.972;18.944;2023-02-01T09:16:34;101417.03;;;5.22;79.64
55550;BME280;41397;49.972;18.944;2023-02-01T09:19:36;101420.46;;;5.26;79.78
55550;BME280;41397;49.972;18.944;2023-02-01T09:22:38;101417.47;;;5.32;79.62
55550;BME280;41397;49.972;18.944;2023-02-01T09:25:39;101420.80;;;5.37;79.68
55550;BME280;41397;49.972;18.944;2023-02-01T09:28:41;101419.13;;;5.34;79.11
55550;BME280;41397;49.972;18.944;2023-02-01T09:31:42;101407.17;;;5.39;79.38
55550;BME280;41397;49.972;18.944;2023-02-01T09:34:44;101406.12;;;5.24;79.15
55550;BME280;41397;49.972;18.944;2023-02-01T09:37:45;101405.21;;;5.23;80.06
55550;BME280;41397;49.972;18.944;2023-02-01T09:40:47;101409.33;;;5.32;79.60
55550;BME280;41397;49.972;18.944;2023-02-01T09:43:56;101404.94;;;5.29;79.93
55550;BME280;41397;49.972;18.944;2023-02-01T09:47:00;101414.75;;;5.32;79.77
55550;BME280;41397;49.972;18.944;2023-02-01T09:50:14;101410.70;;;5.41;80.82
55550;BME280;41397;49.972;18.944;2023-02-01T09:53:29;101398.06;;;5.40;80.67
55550;BME280;41397;49.972;18.944;2023-02-01T09:56:42;101393.98;;;5.31;80.58
55550;BME280;41397;49.972;18.944;2023-02-01T09:59:49;101393.68;;;5.37;85.04
55550;BME280;41397;49.972;18.944;2023-02-01T10:02:54;101392.67;;;5.57;84.80
55550;BME280;41397;49.972;18.944;2023-02-01T10:06:07;101385.58;;;5.54;82.40
55550;BME280;41397;49.972;18.944;2023-02-01T10:09:20;101377.17;;;5.59;81.36
55550;BME280;41397;49.972;18.944;2023-02-01T10:15:43;101375.85;;;5.68;80.58
55550;BME280;41397;49.972;18.944;2023-02-01T10:22:07;101374.01;;;5.68;79.59
55550;BME280;41397;49.972;18.944;2023-02-01T10:28:24;101364.73;;;5.72;79.28
55550;BME280;41397;49.972;18.944;2023-02-01T10:31:31;101360.04;;;5.76;78.13
55550;BME280;41397;49.972;18.944;2023-02-01T10:34:36;101361.79;;;5.77;78.08
55550;BME280;41397;49.972;18.944;2023-02-01T10:37:40;101354.62;;;5.76;77.34
55550;BME280;41397;49.972;18.944;2023-02-01T10:40:42;101334.59;;;5.78;76.47
55550;BME280;41397;49.972;18.944;2023-02-01T10:43:55;101337.20;;;5.80;76.25
55550;BME280;41397;49.972;18.944;2023-02-01T10:46:58;101339.50;;;5.88;76.28
55550;BME280;41397;49.972;18.944;2023-02-01T10:50:13;101328.48;;;5.91;75.91
55550;BME280;41397;49.972;18.944;2023-02-01T10:53:20;101324.02;;;5.90;76.40
55550;BME280;41397;49.972;18.944;2023-02-01T10:56:26;101316.76;;;5.90;75.70
55550;BME280;41397;49.972;18.944;2023-02-01T10:59:29;101321.14;;;5.93;75.69
55550;BME280;41397;49.972;18.944;2023-02-01T11:02:37;101329.35;;;5.91;75.51
55550;BME280;41397;49.972;18.944;2023-02-01T11:05:45;101317.95;;;6.02;75.46
55550;BME280;41397;49.972;18.944;2023-02-01T11:08:55;101308.05;;;6.01;75.23
55550;BME280;41397;49.972;18.944;2023-02-01T11:11:59;101310.77;;;6.01;75.59
55550;BME280;41397;49.972;18.944;2023-02-01T11:18:18;101309.91;;;6.16;75.62
55550;BME280;41397;49.972;18.944;2023-02-01T11:21:21;101296.27;;;6.18;75.10
55550;BME280;41397;49.972;18.944;2023-02-01T11:24:32;101300.13;;;6.14;75.18
55550;BME280;41397;49.972;18.944;2023-02-01T11:27:37;101291.53;;;6.21;74.94
55550;BME280;41397;49.972;18.944;2023-02-01T11:30:42;101298.80;;;6.21;75.26
55550;BME280;41397;49.972;18.944;2023-02-01T11:33:55;101299.05;;;6.16;75.37
55550;BME280;41397;49.972;18.944;2023-02-01T11:37:00;101294.52;;;6.17;75.47
55550;BME280;41397;49.972;18.944;2023-02-01T11:43:28;101292.85;;;6.14;75.94
55550;BME280;41397;49.972;18.944;2023-02-01T11:46:34;101286.83;;;6.25;76.37
55550;BME280;41397;49.972;18.944;2023-02-01T11:49:36;101291.28;;;6.26;76.44
55550;BME280;41397;49.972;18.944;2023-02-01T11:55:56;101287.16;;;6.35;76.50
55550;BME280;41397;49.972;18.944;2023-02-01T11:59:13;101278.95;;;6.36;76.70
55550;BME280;41397;49.972;18.944;2023-02-01T12:06:29;101273.07;;;6.28;76.61
55550;BME280;41397;49.972;18.944;2023-02-01T12:09:15;101264.03;;;6.43;76.88
55550;BME280;41397;49.972;18.944;2023-02-01T12:32:10;101233.89;;;6.64;76.82
55550;BME280;41397;49.972;18.944;2023-02-01T12:35:34;101228.89;;;6.56;76.62
55550;BME280;41397;49.972;18.944;2023-02-01T12:42:03;101224.51;;;6.70;76.71
55550;BME280;41397;49.972;18.944;2023-02-01T12:48:32;101214.91;;;6.78;76.06
55550;BME280;41397;49.972;18.944;2023-02-01T12:51:38;101210.73;;;6.73;75.60
55550;BME280;41397;49.972;18.944;2023-02-01T12:54:55;101210.30;;;6.64;75.41
55550;BME280;41397;49.972;18.944;2023-02-01T13:04:28;101205.09;;;6.76;75.35
55550;BME280;41397;49.972;18.944;2023-02-01T13:08:21;101215.97;;;6.76;75.44
55550;BME280;41397;49.972;18.944;2023-02-01T13:17:32;101204.26;;;6.59;76.88
55550;BME280;41397;49.972;18.944;2023-02-01T13:20:39;101198.81;;;6.59;77.15
55550;BME280;41397;49.972;18.944;2023-02-01T13:23:45;101193.67;;;6.55;77.50
55550;BME280;41397;49.972;18.944;2023-02-01T13:26:49;101184.54;;;6.56;77.85
55550;BME280;41397;49.972;18.944;2023-02-01T13:36:29;101174.38;;;6.43;77.65
55550;BME280;41397;49.972;18.944;2023-02-01T13:42:52;101184.48;;;6.41;77.59
55550;BME280;41397;49.972;18.944;2023-02-01T13:45:57;101179.75;;;6.29;77.52
55550;BME280;41397;49.972;18.944;2023-02-01T13:49:04;101186.95;;;6.30;77.33
55550;BME280;41397;49.972;18.944;2023-02-01T13:52:16;101184.38;;;6.27;78.15
55550;BME280;41397;49.972;18.944;2023-02-01T13:55:25;101180.47;;;6.17;78.93
55550;BME280;41397;49.972;18.944;2023-02-01T13:58:34;101167.58;;;6.05;79.71
55550;BME280;41397;49.972;18.944;2023-02-01T14:01:36;101178.97;;;5.95;80.43
55550;BME280;41397;49.972;18.944;2023-02-01T14:04:46;101194.05;;;5.84;81.23
55550;BME280;41397;49.972;18.944;2023-02-01T14:11:02;101191.78;;;5.76;81.74
55550;BME280;41397;49.972;18.944;2023-02-01T14:20:43;101191.04;;;5.56;83.11
55550;BME280;41397;49.972;18.944;2023-02-01T14:24:01;101204.23;;;5.47;83.64
55550;BME280;41397;49.972;18.944;2023-02-01T14:27:18;101198.87;;;5.45;83.88
55550;BME280;41397;49.972;18.944;2023-02-01T14:30:20;101201.67;;;5.44;84.67
55550;BME280;41397;49.972;18.944;2023-02-01T14:33:24;101209.11;;;5.40;84.63
55550;BME280;41397;49.972;18.944;2023-02-01T14:39:50;101221.39;;;5.12;85.29
55550;BME280;41397;49.972;18.944;2023-02-01T14:42:53;101215.66;;;5.19;85.62
55550;BME280;41397;49.972;18.944;2023-02-01T14:45:55;101226.74;;;5.14;85.64
55550;BME280;41397;49.972;18.944;2023-02-01T14:48:56;101222.20;;;5.15;86.09
55550;BME280;41397;49.972;18.944;2023-02-01T14:51:59;101229.45;;;5.14;86.40
55550;BME280;41397;49.972;18.944;2023-02-01T14:55:05;101218.77;;;5.11;86.60
55550;BME280;41397;49.972;18.944;2023-02-01T15:01:26;101235.67;;;4.99;86.70
55550;BME280;41397;49.972;18.944;2023-02-01T15:04:28;101231.36;;;5.12;86.68
55550;BME280;41397;49.972;18.944;2023-02-01T15:07:34;101224.04;;;5.14;86.83
55550;BME280;41397;49.972;18.944;2023-02-01T15:10:42;101235.20;;;5.08;86.73
55550;BME280;41397;49.972;18.944;2023-02-01T15:13:50;101251.30;;;5.11;87.45
55550;BME280;41397;49.972;18.944;2023-02-01T15:16:54;101256.63;;;5.12;87.25
55550;BME280;41397;49.972;18.944;2023-02-01T15:23:16;101246.70;;;5.13;90.27
55550;BME280;41397;49.972;18.944;2023-02-01T15:26:26;101248.43;;;5.14;90.04
55550;BME280;41397;49.972;18.944;2023-02-01T15:29:27;101229.13;;;5.20;89.29
55550;BME280;41397;49.972;18.944;2023-02-01T15:32:37;101230.80;;;5.23;88.50
55550;BME280;41397;49.972;18.944;2023-02-01T15:35:47;101236.06;;;5.26;87.83
55550;BME280;41397;49.972;18.944;2023-02-01T15:42:11;101234.24;;;5.09;87.70
55550;BME280;41397;49.972;18.944;2023-02-01T15:45:21;101255.86;;;5.10;87.76
55550;BME280;41397;49.972;18.944;2023-02-01T15:48:25;101250.18;;;5.15;87.57
55550;BME280;41397;49.972;18.944;2023-02-01T15:51:29;101251.08;;;5.16;87.57
55550;BME280;41397;49.972;18.944;2023-02-01T15:54:43;101256.63;;;5.12;87.60
55550;BME280;41397;49.972;18.944;2023-02-01T15:57:53;101262.00;;;5.14;87.52
55550;BME280;41397;49.972;18.944;2023-02-01T16:01:01;101258.97;;;5.03;87.57
55550;BME280;41397;49.972;18.944;2023-02-01T16:07:28;101264.05;;;5.09;87.59
55550;BME280;41397;49.972;18.944;2023-02-01T16:10:31;101280.16;;;5.12;87.75
55550;BME280;41397;49.972;18.944;2023-02-01T16:13:37;101272.59;;;5.01;88.04
55550;BME280;41397;49.972;18.944;2023-02-01T16:16:40;101276.26;;;5.00;87.31
55550;BME280;41397;49.972;18.944;2023-02-01T16:19:41;101278.81;;;5.03;86.76
55550;BME280;41397;49.972;18.944;2023-02-01T16:22:43;101278.16;;;4.98;86.22
55550;BME280;41397;49.972;18.944;2023-02-01T16:25:45;101297.55;;;5.08;86.29
55550;BME280;41397;49.972;18.944;2023-02-01T16:28:48;101285.68;;;5.10;85.88
55550;BME280;41397;49.972;18.944;2023-02-01T16:31:49;101288.07;;;4.99;84.95
55550;BME280;41397;49.972;18.944;2023-02-01T16:34:51;101291.33;;;5.06;84.55
55550;BME280;41397;49.972;18.944;2023-02-01T16:37:54;101276.97;;;5.04;84.58
55550;BME280;41397;49.972;18.944;2023-02-01T16:40:56;101291.00;;;5.12;84.47
55550;BME280;41397;49.972;18.944;2023-02-01T16:44:00;101288.88;;;5.19;83.93
55550;BME280;41397;49.972;18.944;2023-02-01T16:47:01;101286.33;;;5.16;83.61
55550;BME280;41397;49.972;18.944;2023-02-01T16:50:03;101291.75;;;5.16;83.38
55550;BME280;41397;49.972;18.944;2023-02-01T16:53:05;101292.62;;;5.16;83.10
55550;BME280;41397;49.972;18.944;2023-02-01T16:56:19;101289.10;;;5.14;82.98
55550;BME280;41397;49.972;18.944;2023-02-01T16:59:21;101302.43;;;5.19;82.76
55550;BME280;41397;49.972;18.944;2023-02-01T17:02:22;101306.07;;;5.18;82.67
55550;BME280;41397;49.972;18.944;2023-02-01T17:05:25;101307.85;;;5.19;82.17
55550;BME280;41397;49.972;18.944;2023-02-01T17:08:34;101313.57;;;5.12;82.10
55550;BME280;41397;49.972;18.944;2023-02-01T17:11:37;101307.85;;;5.19;81.89
55550;BME280;41397;49.972;18.944;2023-02-01T17:14:40;101301.52;;;5.18;81.91
55550;BME280;41397;49.972;18.944;2023-02-01T17:17:42;101304.98;;;5.22;82.06
55550;BME280;41397;49.972;18.944;2023-02-01T17:20:45;101308.57;;;5.22;81.75
55550;BME280;41397;49.972;18.944;2023-02-01T17:23:48;101299.72;;;5.19;81.72
55550;BME280;41397;49.972;18.944;2023-02-01T17:26:50;101302.72;;;5.12;81.67
55550;BME280;41397;49.972;18.944;2023-02-01T17:29:52;101296.69;;;5.07;81.83
55550;BME280;41397;49.972;18.944;2023-02-01T17:33:02;101294.75;;;5.09;81.91
55550;BME280;41397;49.972;18.944;2023-02-01T17:36:05;101302.16;;;5.06;81.92
55550;BME280;41397;49.972;18.944;2023-02-01T17:39:07;101279.28;;;4.94;82.25
55550;BME280;41397;49.972;18.944;2023-02-01T17:42:10;101290.50;;;4.86;82.39
55550;BME280;41397;49.972;18.944;2023-02-01T17:48:29;101295.61;;;4.93;83.10
55550;BME280;41397;49.972;18.944;2023-02-01T17:51:31;101287.32;;;4.96;83.28
55550;BME280;41397;49.972;18.944;2023-02-01T17:54:32;101288.29;;;4.95;82.91
55550;BME280;41397;49.972;18.944;2023-02-01T17:57:35;101283.80;;;4.94;83.14
55550;BME280;41397;49.972;18.944;2023-02-01T18:00:44;101279.19;;;4.96;83.13
55550;BME280;41397;49.972;18.944;2023-02-01T18:03:50;101281.59;;;5.02;82.92
55550;BME280;41397;49.972;18.944;2023-02-01T18:06:55;101281.90;;;4.96;82.76
55550;BME280;41397;49.972;18.944;2023-02-01T18:10:15;101272.90;;;4.95;82.78
55550;BME280;41397;49.972;18.944;2023-02-01T18:13:17;101274.58;;;4.98;82.38
55550;BME280;41397;49.972;18.944;2023-02-01T18:16:24;101269.10;;;4.99;82.22
55550;BME280;41397;49.972;18.944;2023-02-01T18:19:28;101268.35;;;4.96;81.97